KLM994 EKYT-EHAM
Flight info
| Callsign | KLM994 |
|---|---|
| Flight time | N/A |
| Altitude | 30000 |
| Route | GELBA DCT LUTIR DCT MOXCI P174 KUBAT T200 BLUFA |
| Aircraft | A20N/M-SDE2E3FGHIRWXY/LB1 |
Departure
| Time | N/A |
|---|---|
| Airport | Aalborg Airport (EKYT) |
Arrival
| Time | 2026-04-30 18:42 |
|---|---|
| Airport | Amsterdam Airport Schiphol (EHAM) |
| Time | Latitude | Longitude | Altitude | Speed | Heading |
|---|---|---|---|---|---|
| 2026-04-30 17:39 | 56.88817 | 9.54693 | 8900 ft | 287 kts | 205° |
| 2026-04-30 17:41 | 56.74069 | 9.41648 | 11241 ft | 335 kts | 204° |
| 2026-04-30 17:42 | 56.69850 | 9.37935 | 11825 ft | 339 kts | 204° |
| 2026-04-30 17:42 | 56.63423 | 9.32332 | 12625 ft | 345 kts | 204° |
| 2026-04-30 17:43 | 56.59108 | 9.28558 | 13250 ft | 343 kts | 204° |
| 2026-04-30 17:44 | 56.52641 | 9.22922 | 13989 ft | 346 kts | 204° |
| 2026-04-30 17:44 | 56.46329 | 9.17458 | 15438 ft | 326 kts | 204° |
| 2026-04-30 17:46 | 56.36424 | 9.08911 | 17858 ft | 309 kts | 205° |
| 2026-04-30 17:47 | 56.28304 | 9.01935 | 19394 ft | 347 kts | 206° |
| 2026-04-30 17:48 | 56.19020 | 8.94012 | 20871 ft | 389 kts | 205° |
| 2026-04-30 17:48 | 56.11576 | 8.87692 | 22020 ft | 399 kts | 206° |
| 2026-04-30 17:49 | 56.01409 | 8.79040 | 23629 ft | 410 kts | 205° |
| 2026-04-30 17:50 | 55.90988 | 8.70308 | 25095 ft | 419 kts | 206° |
| 2026-04-30 17:51 | 55.83012 | 8.63643 | 26193 ft | 425 kts | 206° |
| 2026-04-30 17:52 | 55.74923 | 8.56904 | 27344 ft | 431 kts | 206° |
| 2026-04-30 17:53 | 55.61162 | 8.45521 | 29356 ft | 442 kts | 206° |
| 2026-04-30 17:54 | 55.49937 | 8.36309 | 30453 ft | 434 kts | 206° |
| 2026-04-30 17:55 | 55.39282 | 8.27617 | 30467 ft | 419 kts | 206° |
| 2026-04-30 17:56 | 55.28737 | 8.19070 | 30470 ft | 418 kts | 206° |
| 2026-04-30 17:58 | 55.12869 | 8.06282 | 30467 ft | 418 kts | 206° |
| 2026-04-30 18:00 | 54.91727 | 7.89438 | 30456 ft | 418 kts | 206° |
| 2026-04-30 18:01 | 54.78486 | 7.78983 | 30463 ft | 418 kts | 205° |
| 2026-04-30 18:02 | 54.62591 | 7.66519 | 30462 ft | 418 kts | 205° |
| 2026-04-30 18:04 | 54.46673 | 7.54153 | 30446 ft | 418 kts | 205° |
| 2026-04-30 18:06 | 54.25461 | 7.37845 | 30366 ft | 416 kts | 204° |
| 2026-04-30 18:07 | 54.15106 | 7.29948 | 29525 ft | 403 kts | 204° |
| 2026-04-30 18:08 | 54.07454 | 7.24144 | 29185 ft | 401 kts | 204° |
| 2026-04-30 18:09 | 53.97265 | 7.16445 | 28745 ft | 400 kts | 203° |
| 2026-04-30 18:10 | 53.87117 | 7.08821 | 28306 ft | 397 kts | 203° |
| 2026-04-30 18:11 | 53.77032 | 7.01293 | 27878 ft | 393 kts | 202° |
| 2026-04-30 18:11 | 53.69425 | 6.95645 | 27568 ft | 407 kts | 202° |
| 2026-04-30 18:12 | 53.61633 | 6.89868 | 27255 ft | 407 kts | 202° |
| 2026-04-30 18:13 | 53.56454 | 6.86045 | 27048 ft | 406 kts | 202° |
| 2026-04-30 18:13 | 53.49583 | 6.80999 | 26656 ft | 402 kts | 202° |
| 2026-04-30 18:14 | 53.43800 | 6.76751 | 26068 ft | 379 kts | 201° |
| 2026-04-30 18:15 | 53.36704 | 6.71505 | 25325 ft | 368 kts | 206° |
| 2026-04-30 18:15 | 53.30653 | 6.63615 | 24397 ft | 364 kts | 217° |
| 2026-04-30 18:16 | 53.26773 | 6.58272 | 23660 ft | 359 kts | 217° |
| 2026-04-30 18:16 | 53.22934 | 6.53002 | 22857 ft | 355 kts | 217° |
| 2026-04-30 18:17 | 53.21027 | 6.50397 | 22460 ft | 354 kts | 217° |
| 2026-04-30 18:17 | 53.19110 | 6.47787 | 22073 ft | 365 kts | 216° |
| 2026-04-30 18:17 | 53.14839 | 6.41995 | 21296 ft | 418 kts | 217° |
| 2026-04-30 18:18 | 53.12568 | 6.38906 | 20916 ft | 423 kts | 217° |
| 2026-04-30 18:18 | 53.10292 | 6.35810 | 20547 ft | 423 kts | 217° |
| 2026-04-30 18:18 | 53.08018 | 6.32722 | 20178 ft | 421 kts | 216° |
| 2026-04-30 18:18 | 53.05753 | 6.29648 | 19808 ft | 420 kts | 216° |
| 2026-04-30 18:19 | 53.03491 | 6.26577 | 19452 ft | 419 kts | 216° |
| 2026-04-30 18:19 | 53.01238 | 6.23524 | 19098 ft | 417 kts | 216° |
| 2026-04-30 18:19 | 52.98991 | 6.20490 | 18744 ft | 415 kts | 216° |
| 2026-04-30 18:19 | 52.96754 | 6.17477 | 18354 ft | 414 kts | 216° |
| 2026-04-30 18:20 | 52.94527 | 6.14479 | 17953 ft | 411 kts | 216° |
| 2026-04-30 18:20 | 52.92310 | 6.11502 | 17564 ft | 409 kts | 216° |
| 2026-04-30 18:20 | 52.90108 | 6.08550 | 17173 ft | 406 kts | 215° |
| 2026-04-30 18:20 | 52.87919 | 6.05616 | 16785 ft | 403 kts | 215° |
| 2026-04-30 18:21 | 52.85754 | 6.02712 | 16406 ft | 399 kts | 215° |
| 2026-04-30 18:21 | 52.83605 | 5.99831 | 16039 ft | 396 kts | 215° |
| 2026-04-30 18:21 | 52.81469 | 5.96977 | 15669 ft | 394 kts | 215° |
| 2026-04-30 18:21 | 52.79337 | 5.94143 | 15303 ft | 392 kts | 215° |
| 2026-04-30 18:22 | 52.77218 | 5.91334 | 14944 ft | 390 kts | 215° |
| 2026-04-30 18:22 | 52.73014 | 5.85770 | 14236 ft | 385 kts | 214° |
| 2026-04-30 18:22 | 52.70929 | 5.83012 | 13846 ft | 383 kts | 214° |
| 2026-04-30 18:23 | 52.68856 | 5.80270 | 13441 ft | 381 kts | 214° |
| 2026-04-30 18:23 | 52.66796 | 5.77544 | 13044 ft | 379 kts | 214° |
| 2026-04-30 18:23 | 52.64749 | 5.74836 | 12662 ft | 377 kts | 214° |
| 2026-04-30 18:23 | 52.62718 | 5.72150 | 12295 ft | 371 kts | 214° |
| 2026-04-30 18:24 | 52.58777 | 5.66945 | 11552 ft | 355 kts | 214° |
| 2026-04-30 18:24 | 52.56866 | 5.64436 | 11190 ft | 348 kts | 214° |
| 2026-04-30 18:24 | 52.55019 | 5.62009 | 10810 ft | 341 kts | 214° |
| 2026-04-30 18:25 | 52.53183 | 5.59597 | 10450 ft | 335 kts | 214° |
| 2026-04-30 18:25 | 52.50397 | 5.53580 | 9684 ft | 333 kts | 245° |
| 2026-04-30 18:25 | 52.49653 | 5.50094 | 9296 ft | 316 kts | 247° |
| 2026-04-30 18:26 | 52.48254 | 5.43509 | 8539 ft | 299 kts | 246° |
| 2026-04-30 18:26 | 52.47565 | 5.40315 | 8165 ft | 296 kts | 246° |
| 2026-04-30 18:26 | 52.46868 | 5.37123 | 7795 ft | 296 kts | 246° |
| 2026-04-30 18:27 | 52.45498 | 5.30826 | 7324 ft | 292 kts | 246° |
| 2026-04-30 18:27 | 52.44830 | 5.27675 | 7325 ft | 293 kts | 246° |
| 2026-04-30 18:28 | 52.43529 | 5.21345 | 7333 ft | 293 kts | 247° |
| 2026-04-30 18:28 | 52.42880 | 5.18176 | 7327 ft | 293 kts | 247° |
| 2026-04-30 18:28 | 52.41582 | 5.11843 | 7325 ft | 293 kts | 247° |
| 2026-04-30 18:29 | 52.41155 | 5.09747 | 7332 ft | 293 kts | 247° |
| 2026-04-30 18:29 | 52.39222 | 5.00256 | 7325 ft | 293 kts | 247° |
| 2026-04-30 18:30 | 52.37929 | 4.93924 | 7331 ft | 293 kts | 246° |
| 2026-04-30 18:30 | 52.36645 | 4.87598 | 7324 ft | 293 kts | 247° |
| 2026-04-30 18:31 | 52.36085 | 4.84393 | 7326 ft | 294 kts | 252° |
| 2026-04-30 18:31 | 52.35163 | 4.77855 | 7332 ft | 295 kts | 252° |
| 2026-04-30 18:32 | 52.34261 | 4.71322 | 7049 ft | 292 kts | 252° |
| 2026-04-30 18:32 | 52.33820 | 4.68113 | 6426 ft | 287 kts | 252° |
| 2026-04-30 18:32 | 52.32981 | 4.61862 | 5299 ft | 264 kts | 253° |
| 2026-04-30 18:33 | 52.32604 | 4.58998 | 4824 ft | 252 kts | 252° |
| 2026-04-30 18:33 | 52.31895 | 4.53484 | 3813 ft | 246 kts | 252° |
| 2026-04-30 18:33 | 52.31555 | 4.50764 | 3312 ft | 245 kts | 253° |
| 2026-04-30 18:34 | 52.31211 | 4.48057 | 3018 ft | 243 kts | 253° |
| 2026-04-30 18:34 | 52.30306 | 4.42736 | 2996 ft | 238 kts | 229° |
| 2026-04-30 18:34 | 52.29167 | 4.41073 | 2984 ft | 202 kts | 195° |
| 2026-04-30 18:35 | 52.27914 | 4.40839 | 2837 ft | 171 kts | 161° |
| 2026-04-30 18:35 | 52.26807 | 4.41382 | 2526 ft | 164 kts | 154° |
| 2026-04-30 18:35 | 52.25739 | 4.42035 | 2160 ft | 164 kts | 153° |
| 2026-04-30 18:36 | 52.23622 | 4.43337 | 2018 ft | 164 kts | 153° |
| 2026-04-30 18:36 | 52.22562 | 4.44005 | 2005 ft | 162 kts | 148° |
| 2026-04-30 18:36 | 52.21714 | 4.47031 | 1996 ft | 157 kts | 95° |
| 2026-04-30 18:37 | 52.21710 | 4.48816 | 1992 ft | 158 kts | 93° |
| 2026-04-30 18:37 | 52.21726 | 4.50583 | 1991 ft | 158 kts | 92° |
| 2026-04-30 18:37 | 52.21746 | 4.52396 | 1994 ft | 158 kts | 92° |
| 2026-04-30 18:37 | 52.21767 | 4.54162 | 2000 ft | 158 kts | 92° |
| 2026-04-30 18:38 | 52.22028 | 4.55911 | 2004 ft | 166 kts | 67° |
| 2026-04-30 18:38 | 52.22646 | 4.57508 | 2004 ft | 167 kts | 65° |
| 2026-04-30 18:38 | 52.23268 | 4.59104 | 1995 ft | 167 kts | 65° |
| 2026-04-30 18:38 | 52.23883 | 4.60686 | 1827 ft | 159 kts | 65° |
| 2026-04-30 18:39 | 52.24456 | 4.62165 | 1652 ft | 151 kts | 65° |
| 2026-04-30 18:39 | 52.25009 | 4.63598 | 1467 ft | 147 kts | 65° |
| 2026-04-30 18:39 | 52.25551 | 4.65001 | 1276 ft | 144 kts | 65° |
| 2026-04-30 18:39 | 52.26061 | 4.66321 | 1089 ft | 133 kts | 65° |
| 2026-04-30 18:40 | 52.26548 | 4.67584 | 909 ft | 130 kts | 65° |
| 2026-04-30 18:40 | 52.27021 | 4.68813 | 741 ft | 127 kts | 64° |
| 2026-04-30 18:40 | 52.27495 | 4.70046 | 572 ft | 128 kts | 63° |
| 2026-04-30 18:40 | 52.27966 | 4.71267 | 402 ft | 127 kts | 62° |
| 2026-04-30 18:41 | 52.28435 | 4.72487 | 222 ft | 128 kts | 62° |
| 2026-04-30 18:41 | 52.28910 | 4.73720 | 46 ft | 127 kts | 62° |
| 2026-04-30 18:41 | 52.29348 | 4.74862 | -2 ft | 101 kts | 58° |
| 2026-04-30 18:41 | 52.29630 | 4.75593 | -1 ft | 51 kts | 58° |
| 2026-04-30 18:42 | 52.29754 | 4.75915 | -4 ft | 41 kts | 58° |
| 2026-04-30 18:42 | 52.30051 | 4.76553 | -3 ft | 27 kts | 31° |
| 2026-04-30 18:42 | 52.30156 | 4.76647 | -2 ft | 7 kts | 28° |
| 2026-04-30 18:45 | 52.30493 | 4.77291 | -3 ft | 18 kts | 58° |
| 2026-04-30 18:45 | 52.30541 | 4.77418 | -3 ft | 10 kts | 58° |
| 2026-04-30 18:45 | 52.30601 | 4.77475 | -2 ft | 11 kts | 346° |
| 2026-04-30 18:46 | 52.30634 | 4.77377 | -2 ft | 10 kts | 278° |
| 2026-04-30 18:46 | 52.30640 | 4.77272 | -2 ft | 9 kts | 271° |
| 2026-04-30 18:46 | 52.30641 | 4.77176 | -2 ft | 8 kts | 271° |
| 2026-04-30 18:46 | 52.30641 | 4.77151 | -2 ft | 1 kts | 271° |
| 2026-04-30 18:47 | 52.30642 | 4.77136 | -2 ft | 2 kts | 271° |
| 2026-04-30 18:47 | 52.30642 | 4.77112 | -2 ft | 3 kts | 272° |
| 2026-04-30 18:47 | 52.30644 | 4.77081 | -2 ft | 2 kts | 275° |
| 2026-04-30 18:47 | 52.30645 | 4.77059 | -2 ft | 2 kts | 275° |
| 2026-04-30 18:48 | 52.30646 | 4.77039 | -2 ft | 2 kts | 275° |
| 2026-04-30 18:48 | 52.30649 | 4.76989 | -2 ft | 6 kts | 276° |
| 2026-04-30 18:48 | 52.30656 | 4.76925 | -2 ft | 5 kts | 287° |
| 2026-04-30 18:48 | 52.30671 | 4.76875 | -2 ft | 4 kts | 301° |
| 2026-04-30 18:49 | 52.30689 | 4.76847 | -2 ft | 3 kts | 341° |
| 2026-04-30 18:49 | 52.30705 | 4.76855 | -2 ft | 2 kts | 20° |
| 2026-04-30 18:49 | 52.30718 | 4.76866 | -2 ft | 2 kts | 29° |
| 2026-04-30 18:49 | 52.30726 | 4.76875 | -2 ft | 1 kts | 34° |
| 2026-04-30 18:50 | 52.30727 | 4.76876 | -2 ft | 0 kts | 34° |